sensor_id;sensor_type;location;lat;lon;timestamp;P1;durP1;ratioP1;P2;durP2;ratioP2
75038;SDS011;63609;49.992;14.512;2022-12-18T00:03:20;30.48;;;15.35;;
75038;SDS011;63609;49.992;14.512;2022-12-18T00:05:48;35.50;;;12.77;;
75038;SDS011;63609;49.992;14.512;2022-12-18T00:08:19;30.15;;;12.95;;
75038;SDS011;63609;49.992;14.512;2022-12-18T00:10:46;39.03;;;14.45;;
75038;SDS011;63609;49.992;14.512;2022-12-18T00:13:13;34.13;;;14.98;;
75038;SDS011;63609;49.992;14.512;2022-12-18T00:15:40;31.67;;;15.27;;
75038;SDS011;63609;49.992;14.512;2022-12-18T00:18:07;44.47;;;15.20;;
75038;SDS011;63609;49.992;14.512;2022-12-18T00:20:38;34.28;;;15.82;;
75038;SDS011;63609;49.992;14.512;2022-12-18T00:23:06;32.15;;;14.57;;
75038;SDS011;63609;49.992;14.512;2022-12-18T00:25:36;33.53;;;13.48;;
75038;SDS011;63609;49.992;14.512;2022-12-18T00:28:03;29.83;;;14.60;;
75038;SDS011;63609;49.992;14.512;2022-12-18T00:30:31;36.22;;;12.80;;
75038;SDS011;63609;49.992;14.512;2022-12-18T00:33:01;32.83;;;14.23;;
75038;SDS011;63609;49.992;14.512;2022-12-18T00:35:28;26.00;;;12.27;;
75038;SDS011;63609;49.992;14.512;2022-12-18T00:38:04;26.15;;;11.50;;
75038;SDS011;63609;49.992;14.512;2022-12-18T00:40:32;37.03;;;13.63;;
75038;SDS011;63609;49.992;14.512;2022-12-18T00:43:11;31.17;;;12.85;;
75038;SDS011;63609;49.992;14.512;2022-12-18T00:45:42;34.30;;;12.95;;
75038;SDS011;63609;49.992;14.512;2022-12-18T00:48:22;34.17;;;15.55;;
75038;SDS011;63609;49.992;14.512;2022-12-18T00:50:52;42.00;;;14.02;;
75038;SDS011;63609;49.992;14.512;2022-12-18T00:55:50;15.07;;;8.98;;
75038;SDS011;63609;49.992;14.512;2022-12-18T01:00:59;24.90;;;6.63;;
75038;SDS011;63609;49.992;14.512;2022-12-18T01:03:33;18.92;;;9.50;;
75038;SDS011;63609;49.992;14.512;2022-12-18T01:06:12;23.90;;;10.20;;
75038;SDS011;63609;49.992;14.512;2022-12-18T01:08:41;29.90;;;11.05;;
75038;SDS011;63609;49.992;14.512;2022-12-18T01:11:13;28.48;;;11.55;;
75038;SDS011;63609;49.992;14.512;2022-12-18T01:13:48;39.65;;;11.00;;
75038;SDS011;63609;49.992;14.512;2022-12-18T01:16:15;16.48;;;7.50;;
75038;SDS011;63609;49.992;14.512;2022-12-18T01:18:43;15.27;;;10.35;;
75038;SDS011;63609;49.992;14.512;2022-12-18T01:21:12;13.43;;;7.25;;
75038;SDS011;63609;49.992;14.512;2022-12-18T01:23:44;13.18;;;7.97;;
75038;SDS011;63609;49.992;14.512;2022-12-18T01:26:12;19.80;;;9.88;;
75038;SDS011;63609;49.992;14.512;2022-12-18T01:28:41;22.58;;;9.00;;
75038;SDS011;63609;49.992;14.512;2022-12-18T01:31:11;24.95;;;11.02;;
75038;SDS011;63609;49.992;14.512;2022-12-18T01:33:45;27.45;;;10.63;;
75038;SDS011;63609;49.992;14.512;2022-12-18T01:36:17;25.75;;;11.02;;
75038;SDS011;63609;49.992;14.512;2022-12-18T01:38:45;11.93;;;6.45;;
75038;SDS011;63609;49.992;14.512;2022-12-18T01:41:16;18.00;;;9.40;;
75038;SDS011;63609;49.992;14.512;2022-12-18T01:43:47;19.70;;;9.90;;
75038;SDS011;63609;49.992;14.512;2022-12-18T01:46:20;26.08;;;11.13;;
75038;SDS011;63609;49.992;14.512;2022-12-18T01:48:59;21.27;;;8.77;;
75038;SDS011;63609;49.992;14.512;2022-12-18T01:51:31;18.05;;;9.65;;
75038;SDS011;63609;49.992;14.512;2022-12-18T01:54:10;17.42;;;7.97;;
75038;SDS011;63609;49.992;14.512;2022-12-18T01:56:45;27.38;;;12.50;;
75038;SDS011;63609;49.992;14.512;2022-12-18T01:59:14;21.33;;;9.38;;
75038;SDS011;63609;49.992;14.512;2022-12-18T02:01:44;26.95;;;11.43;;
75038;SDS011;63609;49.992;14.512;2022-12-18T02:04:27;21.48;;;12.05;;
75038;SDS011;63609;49.992;14.512;2022-12-18T02:07:03;24.55;;;11.40;;
75038;SDS011;63609;49.992;14.512;2022-12-18T02:12:21;22.83;;;11.15;;
75038;SDS011;63609;49.992;14.512;2022-12-18T02:15:09;23.40;;;10.27;;
75038;SDS011;63609;49.992;14.512;2022-12-18T02:18:08;16.73;;;9.38;;
75038;SDS011;63609;49.992;14.512;2022-12-18T02:20:50;17.33;;;9.07;;
75038;SDS011;63609;49.992;14.512;2022-12-18T02:26:37;23.63;;;11.32;;
75038;SDS011;63609;49.992;14.512;2022-12-18T02:29:33;24.73;;;10.93;;
75038;SDS011;63609;49.992;14.512;2022-12-18T02:32:28;22.75;;;11.23;;
75038;SDS011;63609;49.992;14.512;2022-12-18T02:35:42;24.50;;;11.70;;
75038;SDS011;63609;49.992;14.512;2022-12-18T02:38:32;24.33;;;10.32;;
75038;SDS011;63609;49.992;14.512;2022-12-18T02:41:16;29.05;;;12.45;;
75038;SDS011;63609;49.992;14.512;2022-12-18T02:43:48;28.17;;;12.70;;
75038;SDS011;63609;49.992;14.512;2022-12-18T02:46:29;16.05;;;7.60;;
75038;SDS011;63609;49.992;14.512;2022-12-18T02:55:18;17.98;;;10.00;;
75038;SDS011;63609;49.992;14.512;2022-12-18T02:58:17;29.92;;;11.73;;
75038;SDS011;63609;49.992;14.512;2022-12-18T03:01:39;13.23;;;5.47;;
75038;SDS011;63609;49.992;14.512;2022-12-18T03:07:45;16.85;;;7.88;;
75038;SDS011;63609;49.992;14.512;2022-12-18T03:10:42;14.45;;;8.13;;
75038;SDS011;63609;49.992;14.512;2022-12-18T03:13:26;26.35;;;10.45;;
75038;SDS011;63609;49.992;14.512;2022-12-18T03:16:02;47.45;;;13.70;;
75038;SDS011;63609;49.992;14.512;2022-12-18T03:18:39;35.40;;;13.98;;
75038;SDS011;63609;49.992;14.512;2022-12-18T03:21:11;43.67;;;15.88;;
75038;SDS011;63609;49.992;14.512;2022-12-18T03:30:35;31.67;;;12.82;;
75038;SDS011;63609;49.992;14.512;2022-12-18T03:33:11;36.92;;;13.60;;
75038;SDS011;63609;49.992;14.512;2022-12-18T03:35:57;26.85;;;10.27;;
75038;SDS011;63609;49.992;14.512;2022-12-18T03:38:27;31.25;;;13.63;;
75038;SDS011;63609;49.992;14.512;2022-12-18T03:41:21;43.63;;;14.27;;
75038;SDS011;63609;49.992;14.512;2022-12-18T03:44:35;44.47;;;13.20;;
75038;SDS011;63609;49.992;14.512;2022-12-18T03:47:15;40.42;;;13.18;;
75038;SDS011;63609;49.992;14.512;2022-12-18T03:50:20;26.55;;;13.55;;
75038;SDS011;63609;49.992;14.512;2022-12-18T03:53:37;41.15;;;11.88;;
75038;SDS011;63609;49.992;14.512;2022-12-18T03:56:20;25.45;;;11.40;;
75038;SDS011;63609;49.992;14.512;2022-12-18T03:58:59;27.98;;;11.35;;
75038;SDS011;63609;49.992;14.512;2022-12-18T04:01:34;19.85;;;8.45;;
75038;SDS011;63609;49.992;14.512;2022-12-18T04:04:17;31.95;;;11.00;;
75038;SDS011;63609;49.992;14.512;2022-12-18T04:06:56;35.53;;;11.30;;
75038;SDS011;63609;49.992;14.512;2022-12-18T04:09:33;14.45;;;6.68;;
75038;SDS011;63609;49.992;14.512;2022-12-18T04:12:07;19.70;;;9.15;;
75038;SDS011;63609;49.992;14.512;2022-12-18T04:14:57;32.35;;;11.35;;
75038;SDS011;63609;49.992;14.512;2022-12-18T04:17:47;38.25;;;11.52;;
75038;SDS011;63609;49.992;14.512;2022-12-18T04:20:19;36.78;;;11.77;;
75038;SDS011;63609;49.992;14.512;2022-12-18T04:25:44;15.88;;;7.50;;
75038;SDS011;63609;49.992;14.512;2022-12-18T04:28:23;30.50;;;9.18;;
75038;SDS011;63609;49.992;14.512;2022-12-18T04:33:42;17.08;;;8.27;;
75038;SDS011;63609;49.992;14.512;2022-12-18T04:36:13;44.95;;;14.50;;
75038;SDS011;63609;49.992;14.512;2022-12-18T04:38:48;44.40;;;16.48;;
75038;SDS011;63609;49.992;14.512;2022-12-18T04:41:25;55.00;;;16.88;;
75038;SDS011;63609;49.992;14.512;2022-12-18T04:43:55;36.15;;;12.95;;
75038;SDS011;63609;49.992;14.512;2022-12-18T04:46:29;48.15;;;17.63;;
75038;SDS011;63609;49.992;14.512;2022-12-18T04:48:56;41.67;;;14.98;;
75038;SDS011;63609;49.992;14.512;2022-12-18T04:54:04;46.78;;;10.25;;
75038;SDS011;63609;49.992;14.512;2022-12-18T04:56:43;34.25;;;14.38;;
75038;SDS011;63609;49.992;14.512;2022-12-18T04:59:18;51.28;;;13.98;;
75038;SDS011;63609;49.992;14.512;2022-12-18T05:01:57;51.10;;;14.10;;
75038;SDS011;63609;49.992;14.512;2022-12-18T05:08:01;35.40;;;12.50;;
75038;SDS011;63609;49.992;14.512;2022-12-18T05:10:31;26.40;;;10.65;;
75038;SDS011;63609;49.992;14.512;2022-12-18T05:13:19;30.67;;;11.32;;
75038;SDS011;63609;49.992;14.512;2022-12-18T05:15:50;39.50;;;12.73;;
75038;SDS011;63609;49.992;14.512;2022-12-18T05:18:29;37.15;;;12.73;;
75038;SDS011;63609;49.992;14.512;2022-12-18T05:20:57;38.38;;;11.77;;
75038;SDS011;63609;49.992;14.512;2022-12-18T05:23:38;26.77;;;10.05;;
75038;SDS011;63609;49.992;14.512;2022-12-18T05:26:17;22.73;;;10.15;;
75038;SDS011;63609;49.992;14.512;2022-12-18T05:28:52;31.35;;;9.68;;
75038;SDS011;63609;49.992;14.512;2022-12-18T05:31:30;27.20;;;10.80;;
75038;SDS011;63609;49.992;14.512;2022-12-18T05:34:05;28.58;;;11.23;;
75038;SDS011;63609;49.992;14.512;2022-12-18T05:36:35;29.27;;;10.73;;
75038;SDS011;63609;49.992;14.512;2022-12-18T05:39:05;30.27;;;10.60;;
75038;SDS011;63609;49.992;14.512;2022-12-18T05:41:35;28.02;;;9.88;;
75038;SDS011;63609;49.992;14.512;2022-12-18T05:44:46;21.20;;;8.88;;
75038;SDS011;63609;49.992;14.512;2022-12-18T05:49:46;8.75;;;4.72;;
75038;SDS011;63609;49.992;14.512;2022-12-18T05:52:30;17.02;;;5.20;;
75038;SDS011;63609;49.992;14.512;2022-12-18T05:55:14;15.18;;;5.50;;
75038;SDS011;63609;49.992;14.512;2022-12-18T06:00:49;11.18;;;4.72;;
75038;SDS011;63609;49.992;14.512;2022-12-18T06:06:46;19.85;;;8.10;;
75038;SDS011;63609;49.992;14.512;2022-12-18T06:09:45;32.97;;;10.45;;
75038;SDS011;63609;49.992;14.512;2022-12-18T06:12:40;28.10;;;9.65;;
75038;SDS011;63609;49.992;14.512;2022-12-18T06:15:27;23.70;;;8.68;;
75038;SDS011;63609;49.992;14.512;2022-12-18T06:21:15;24.50;;;9.55;;
75038;SDS011;63609;49.992;14.512;2022-12-18T06:23:45;37.38;;;9.45;;
75038;SDS011;63609;49.992;14.512;2022-12-18T06:26:16;24.90;;;9.48;;
75038;SDS011;63609;49.992;14.512;2022-12-18T06:29:31;23.55;;;10.18;;
75038;SDS011;63609;49.992;14.512;2022-12-18T06:32:48;30.00;;;8.40;;
75038;SDS011;63609;49.992;14.512;2022-12-18T06:35:34;11.90;;;5.65;;
75038;SDS011;63609;49.992;14.512;2022-12-18T06:41:40;28.02;;;9.50;;
75038;SDS011;63609;49.992;14.512;2022-12-18T06:44:29;41.63;;;12.10;;
75038;SDS011;63609;49.992;14.512;2022-12-18T06:47:14;43.63;;;11.50;;
75038;SDS011;63609;49.992;14.512;2022-12-18T06:54:05;28.08;;;7.72;;
75038;SDS011;63609;49.992;14.512;2022-12-18T06:59:48;24.02;;;7.70;;
75038;SDS011;63609;49.992;14.512;2022-12-18T07:02:35;20.88;;;7.07;;
75038;SDS011;63609;49.992;14.512;2022-12-18T07:06:17;18.75;;;7.70;;
75038;SDS011;63609;49.992;14.512;2022-12-18T07:14:16;23.20;;;6.93;;
75038;SDS011;63609;49.992;14.512;2022-12-18T07:30:45;27.35;;;8.55;;
75038;SDS011;63609;49.992;14.512;2022-12-18T08:01:21;34.63;;;10.13;;
75038;SDS011;63609;49.992;14.512;2022-12-18T08:04:34;23.63;;;11.32;;
75038;SDS011;63609;49.992;14.512;2022-12-18T08:08:01;23.30;;;10.25;;
75038;SDS011;63609;49.992;14.512;2022-12-18T08:11:24;21.23;;;9.52;;
75038;SDS011;63609;49.992;14.512;2022-12-18T08:14:05;21.35;;;7.70;;
75038;SDS011;63609;49.992;14.512;2022-12-18T08:16:37;21.27;;;8.32;;
75038;SDS011;63609;49.992;14.512;2022-12-18T08:26:52;24.88;;;7.13;;
75038;SDS011;63609;49.992;14.512;2022-12-18T08:40:12;25.05;;;9.95;;
75038;SDS011;63609;49.992;14.512;2022-12-18T08:42:59;23.15;;;8.20;;
75038;SDS011;63609;49.992;14.512;2022-12-18T08:46:06;21.23;;;7.53;;
75038;SDS011;63609;49.992;14.512;2022-12-18T08:48:40;27.90;;;8.98;;
75038;SDS011;63609;49.992;14.512;2022-12-18T08:51:21;28.02;;;9.20;;
75038;SDS011;63609;49.992;14.512;2022-12-18T09:01:14;19.75;;;8.30;;
75038;SDS011;63609;49.992;14.512;2022-12-18T09:04:19;25.25;;;8.75;;
75038;SDS011;63609;49.992;14.512;2022-12-18T09:07:14;12.80;;;5.93;;
75038;SDS011;63609;49.992;14.512;2022-12-18T09:10:41;13.18;;;5.20;;
75038;SDS011;63609;49.992;14.512;2022-12-18T09:13:31;32.60;;;11.68;;
75038;SDS011;63609;49.992;14.512;2022-12-18T09:17:01;23.63;;;9.02;;
75038;SDS011;63609;49.992;14.512;2022-12-18T09:20:49;24.20;;;9.48;;
75038;SDS011;63609;49.992;14.512;2022-12-18T09:23:50;24.13;;;8.57;;
75038;SDS011;63609;49.992;14.512;2022-12-18T09:27:00;29.48;;;10.25;;
75038;SDS011;63609;49.992;14.512;2022-12-18T09:30:08;18.90;;;10.15;;
75038;SDS011;63609;49.992;14.512;2022-12-18T09:33:08;16.00;;;7.38;;
75038;SDS011;63609;49.992;14.512;2022-12-18T09:36:28;20.67;;;10.68;;
75038;SDS011;63609;49.992;14.512;2022-12-18T09:38:59;20.70;;;9.02;;
75038;SDS011;63609;49.992;14.512;2022-12-18T09:48:50;17.02;;;8.55;;
75038;SDS011;63609;49.992;14.512;2022-12-18T10:14:01;21.88;;;8.93;;
75038;SDS011;63609;49.992;14.512;2022-12-18T10:18:17;22.17;;;9.05;;
75038;SDS011;63609;49.992;14.512;2022-12-18T10:27:56;20.58;;;9.25;;
75038;SDS011;63609;49.992;14.512;2022-12-18T10:30:31;18.58;;;9.23;;
75038;SDS011;63609;49.992;14.512;2022-12-18T10:36:12;31.10;;;11.05;;
75038;SDS011;63609;49.992;14.512;2022-12-18T10:43:14;29.45;;;10.70;;
75038;SDS011;63609;49.992;14.512;2022-12-18T10:50:24;27.30;;;10.35;;
75038;SDS011;63609;49.992;14.512;2022-12-18T10:57:48;24.27;;;9.55;;
75038;SDS011;63609;49.992;14.512;2022-12-18T11:00:27;26.08;;;10.48;;
75038;SDS011;63609;49.992;14.512;2022-12-18T11:03:31;18.55;;;8.50;;
75038;SDS011;63609;49.992;14.512;2022-12-18T11:06:21;27.23;;;9.85;;
75038;SDS011;63609;49.992;14.512;2022-12-18T11:13:08;22.70;;;8.82;;
75038;SDS011;63609;49.992;14.512;2022-12-18T11:17:00;18.92;;;7.35;;
75038;SDS011;63609;49.992;14.512;2022-12-18T11:24:01;17.40;;;9.35;;
75038;SDS011;63609;49.992;14.512;2022-12-18T11:31:16;21.15;;;8.93;;
75038;SDS011;63609;49.992;14.512;2022-12-18T11:42:48;24.73;;;9.93;;
75038;SDS011;63609;49.992;14.512;2022-12-18T11:45:54;19.88;;;8.25;;
75038;SDS011;63609;49.992;14.512;2022-12-18T11:49:32;17.95;;;6.22;;
75038;SDS011;63609;49.992;14.512;2022-12-18T11:52:56;23.20;;;9.00;;
75038;SDS011;63609;49.992;14.512;2022-12-18T12:20:19;29.48;;;10.82;;
75038;SDS011;63609;49.992;14.512;2022-12-18T12:24:01;22.90;;;7.70;;
75038;SDS011;63609;49.992;14.512;2022-12-18T12:46:41;34.08;;;9.65;;
75038;SDS011;63609;49.992;14.512;2022-12-18T12:56:43;23.92;;;11.50;;
75038;SDS011;63609;49.992;14.512;2022-12-18T14:01:15;19.23;;;7.50;;
75038;SDS011;63609;49.992;14.512;2022-12-18T14:13:41;27.92;;;9.10;;
75038;SDS011;63609;49.992;14.512;2022-12-18T14:25:38;33.85;;;12.32;;
75038;SDS011;63609;49.992;14.512;2022-12-18T14:28:18;23.63;;;7.00;;
75038;SDS011;63609;49.992;14.512;2022-12-18T14:31:46;25.10;;;11.40;;
75038;SDS011;63609;49.992;14.512;2022-12-18T14:39:11;26.40;;;10.63;;
75038;SDS011;63609;49.992;14.512;2022-12-18T14:41:48;23.10;;;9.98;;
75038;SDS011;63609;49.992;14.512;2022-12-18T14:44:15;28.67;;;12.38;;
75038;SDS011;63609;49.992;14.512;2022-12-18T14:46:44;28.80;;;11.18;;
75038;SDS011;63609;49.992;14.512;2022-12-18T14:49:26;27.35;;;11.20;;
75038;SDS011;63609;49.992;14.512;2022-12-18T14:52:06;31.52;;;11.15;;
75038;SDS011;63609;49.992;14.512;2022-12-18T14:54:52;25.48;;;10.88;;
75038;SDS011;63609;49.992;14.512;2022-12-18T15:00:15;25.20;;;9.70;;
75038;SDS011;63609;49.992;14.512;2022-12-18T15:02:51;30.35;;;11.10;;
75038;SDS011;63609;49.992;14.512;2022-12-18T15:05:25;24.58;;;10.45;;
75038;SDS011;63609;49.992;14.512;2022-12-18T15:07:55;30.00;;;11.65;;
75038;SDS011;63609;49.992;14.512;2022-12-18T15:10:26;22.45;;;9.68;;
75038;SDS011;63609;49.992;14.512;2022-12-18T15:25:59;28.48;;;10.73;;
75038;SDS011;63609;49.992;14.512;2022-12-18T15:28:47;27.35;;;10.23;;
75038;SDS011;63609;49.992;14.512;2022-12-18T15:34:08;21.35;;;7.60;;
75038;SDS011;63609;49.992;14.512;2022-12-18T15:36:38;25.15;;;11.20;;
75038;SDS011;63609;49.992;14.512;2022-12-18T15:41:43;20.77;;;10.45;;
75038;SDS011;63609;49.992;14.512;2022-12-18T15:44:41;19.40;;;9.35;;
75038;SDS011;63609;49.992;14.512;2022-12-18T15:48:15;27.38;;;11.65;;
75038;SDS011;63609;49.992;14.512;2022-12-18T15:51:08;27.10;;;11.27;;
75038;SDS011;63609;49.992;14.512;2022-12-18T15:53:50;33.33;;;11.13;;
75038;SDS011;63609;49.992;14.512;2022-12-18T15:56:21;33.80;;;13.32;;
75038;SDS011;63609;49.992;14.512;2022-12-18T16:03:38;31.15;;;12.50;;
75038;SDS011;63609;49.992;14.512;2022-12-18T16:06:11;34.38;;;15.48;;
75038;SDS011;63609;49.992;14.512;2022-12-18T16:08:48;39.25;;;16.27;;
75038;SDS011;63609;49.992;14.512;2022-12-18T16:14:12;30.90;;;15.25;;
75038;SDS011;63609;49.992;14.512;2022-12-18T16:16:56;40.42;;;18.10;;
75038;SDS011;63609;49.992;14.512;2022-12-18T16:19:25;35.22;;;18.17;;
75038;SDS011;63609;49.992;14.512;2022-12-18T16:21:54;34.63;;;15.43;;
75038;SDS011;63609;49.992;14.512;2022-12-18T16:24:26;46.00;;;16.10;;
75038;SDS011;63609;49.992;14.512;2022-12-18T16:26:59;31.40;;;14.32;;
75038;SDS011;63609;49.992;14.512;2022-12-18T16:30:06;42.30;;;17.65;;
75038;SDS011;63609;49.992;14.512;2022-12-18T16:32:38;41.08;;;16.08;;
75038;SDS011;63609;49.992;14.512;2022-12-18T16:35:05;41.45;;;17.00;;
75038;SDS011;63609;49.992;14.512;2022-12-18T16:37:32;40.72;;;15.18;;
75038;SDS011;63609;49.992;14.512;2022-12-18T16:39:59;37.83;;;16.33;;
75038;SDS011;63609;49.992;14.512;2022-12-18T16:42:26;35.85;;;15.70;;
75038;SDS011;63609;49.992;14.512;2022-12-18T16:44:54;43.85;;;16.10;;
75038;SDS011;63609;49.992;14.512;2022-12-18T16:47:21;41.92;;;17.33;;
75038;SDS011;63609;49.992;14.512;2022-12-18T16:49:47;47.45;;;20.25;;
75038;SDS011;63609;49.992;14.512;2022-12-18T16:52:18;56.08;;;22.95;;
75038;SDS011;63609;49.992;14.512;2022-12-18T16:54:47;36.97;;;17.30;;
75038;SDS011;63609;49.992;14.512;2022-12-18T16:57:18;37.78;;;16.48;;
75038;SDS011;63609;49.992;14.512;2022-12-18T16:59:46;38.45;;;15.38;;
75038;SDS011;63609;49.992;14.512;2022-12-18T17:02:15;32.72;;;15.27;;
75038;SDS011;63609;49.992;14.512;2022-12-18T17:04:52;33.17;;;15.25;;
75038;SDS011;63609;49.992;14.512;2022-12-18T17:07:23;44.30;;;15.90;;
75038;SDS011;63609;49.992;14.512;2022-12-18T17:09:51;32.90;;;13.98;;
75038;SDS011;63609;49.992;14.512;2022-12-18T17:12:20;38.80;;;17.02;;
75038;SDS011;63609;49.992;14.512;2022-12-18T17:14:47;39.20;;;16.55;;
75038;SDS011;63609;49.992;14.512;2022-12-18T17:17:14;43.95;;;18.02;;
75038;SDS011;63609;49.992;14.512;2022-12-18T17:19:51;32.45;;;11.60;;
75038;SDS011;63609;49.992;14.512;2022-12-18T17:22:18;35.63;;;14.15;;
75038;SDS011;63609;49.992;14.512;2022-12-18T17:24:46;34.90;;;13.32;;
75038;SDS011;63609;49.992;14.512;2022-12-18T17:27:13;31.30;;;13.27;;
75038;SDS011;63609;49.992;14.512;2022-12-18T17:29:45;35.25;;;12.90;;
75038;SDS011;63609;49.992;14.512;2022-12-18T17:32:22;38.30;;;17.80;;
75038;SDS011;63609;49.992;14.512;2022-12-18T17:37:48;37.20;;;13.98;;
75038;SDS011;63609;49.992;14.512;2022-12-18T17:40:22;35.03;;;14.45;;
75038;SDS011;63609;49.992;14.512;2022-12-18T17:45:24;31.92;;;13.43;;
75038;SDS011;63609;49.992;14.512;2022-12-18T17:48:19;33.47;;;14.70;;
75038;SDS011;63609;49.992;14.512;2022-12-18T17:50:51;30.13;;;15.80;;
75038;SDS011;63609;49.992;14.512;2022-12-18T17:53:18;33.28;;;14.68;;
75038;SDS011;63609;49.992;14.512;2022-12-18T17:55:54;64.15;;;26.50;;
75038;SDS011;63609;49.992;14.512;2022-12-18T17:58:24;68.63;;;28.45;;
75038;SDS011;63609;49.992;14.512;2022-12-18T18:00:51;57.30;;;24.55;;
75038;SDS011;63609;49.992;14.512;2022-12-18T18:03:18;76.22;;;34.65;;
75038;SDS011;63609;49.992;14.512;2022-12-18T18:05:45;35.63;;;19.25;;
75038;SDS011;63609;49.992;14.512;2022-12-18T18:14:45;29.55;;;11.43;;
75038;SDS011;63609;49.992;14.512;2022-12-18T18:17:18;41.60;;;20.08;;
75038;SDS011;63609;49.992;14.512;2022-12-18T18:19:45;35.13;;;16.52;;
75038;SDS011;63609;49.992;14.512;2022-12-18T18:22:25;43.55;;;17.05;;
75038;SDS011;63609;49.992;14.512;2022-12-18T18:24:52;50.90;;;22.42;;
75038;SDS011;63609;49.992;14.512;2022-12-18T18:27:42;61.05;;;25.00;;
75038;SDS011;63609;49.992;14.512;2022-12-18T18:30:13;48.22;;;21.83;;
75038;SDS011;63609;49.992;14.512;2022-12-18T18:32:40;63.47;;;21.88;;
75038;SDS011;63609;49.992;14.512;2022-12-18T18:35:09;50.50;;;22.08;;
75038;SDS011;63609;49.992;14.512;2022-12-18T18:38:01;48.95;;;20.48;;
75038;SDS011;63609;49.992;14.512;2022-12-18T18:40:29;54.97;;;22.58;;
75038;SDS011;63609;49.992;14.512;2022-12-18T18:42:56;54.67;;;24.90;;
75038;SDS011;63609;49.992;14.512;2022-12-18T18:45:24;60.28;;;23.38;;
75038;SDS011;63609;49.992;14.512;2022-12-18T18:47:51;47.38;;;24.42;;
75038;SDS011;63609;49.992;14.512;2022-12-18T18:50:21;60.45;;;26.42;;
75038;SDS011;63609;49.992;14.512;2022-12-18T18:52:48;57.72;;;23.50;;
75038;SDS011;63609;49.992;14.512;2022-12-18T18:57:51;46.97;;;18.33;;
75038;SDS011;63609;49.992;14.512;2022-12-18T19:00:18;47.25;;;23.15;;
75038;SDS011;63609;49.992;14.512;2022-12-18T19:02:45;60.85;;;26.42;;
75038;SDS011;63609;49.992;14.512;2022-12-18T19:05:13;68.32;;;27.25;;
75038;SDS011;63609;49.992;14.512;2022-12-18T19:07:47;49.85;;;24.15;;
75038;SDS011;63609;49.992;14.512;2022-12-18T19:10:14;60.75;;;24.83;;
75038;SDS011;63609;49.992;14.512;2022-12-18T19:12:41;61.35;;;22.25;;
75038;SDS011;63609;49.992;14.512;2022-12-18T19:15:27;59.72;;;24.90;;
75038;SDS011;63609;49.992;14.512;2022-12-18T19:17:58;42.35;;;20.33;;
75038;SDS011;63609;49.992;14.512;2022-12-18T19:20:28;43.45;;;21.33;;
75038;SDS011;63609;49.992;14.512;2022-12-18T19:22:57;66.80;;;28.13;;
75038;SDS011;63609;49.992;14.512;2022-12-18T19:25:24;61.88;;;26.52;;
75038;SDS011;63609;49.992;14.512;2022-12-18T19:28:09;48.13;;;24.40;;
75038;SDS011;63609;49.992;14.512;2022-12-18T19:30:51;48.05;;;21.80;;
75038;SDS011;63609;49.992;14.512;2022-12-18T19:33:25;56.45;;;25.45;;
75038;SDS011;63609;49.992;14.512;2022-12-18T19:36:18;59.10;;;24.10;;
75038;SDS011;63609;49.992;14.512;2022-12-18T19:38:47;61.17;;;28.38;;
75038;SDS011;63609;49.992;14.512;2022-12-18T19:41:15;64.47;;;29.40;;
75038;SDS011;63609;49.992;14.512;2022-12-18T19:43:44;65.47;;;28.20;;
75038;SDS011;63609;49.992;14.512;2022-12-18T19:46:18;67.43;;;30.67;;
75038;SDS011;63609;49.992;14.512;2022-12-18T19:48:47;71.80;;;29.63;;
75038;SDS011;63609;49.992;14.512;2022-12-18T19:51:20;73.43;;;28.80;;
75038;SDS011;63609;49.992;14.512;2022-12-18T19:53:53;75.63;;;30.73;;
75038;SDS011;63609;49.992;14.512;2022-12-18T19:56:26;60.95;;;25.20;;
75038;SDS011;63609;49.992;14.512;2022-12-18T19:58:55;64.85;;;30.88;;
75038;SDS011;63609;49.992;14.512;2022-12-18T20:01:23;68.00;;;27.23;;
75038;SDS011;63609;49.992;14.512;2022-12-18T20:03:52;58.25;;;25.88;;
75038;SDS011;63609;49.992;14.512;2022-12-18T20:10:30;55.55;;;21.60;;
75038;SDS011;63609;49.992;14.512;2022-12-18T20:12:57;52.42;;;22.52;;
75038;SDS011;63609;49.992;14.512;2022-12-18T20:15:25;52.63;;;24.35;;
75038;SDS011;63609;49.992;14.512;2022-12-18T20:18:11;47.08;;;20.45;;
75038;SDS011;63609;49.992;14.512;2022-12-18T20:20:47;54.75;;;23.35;;
75038;SDS011;63609;49.992;14.512;2022-12-18T20:23:39;57.08;;;25.92;;
75038;SDS011;63609;49.992;14.512;2022-12-18T20:28:34;50.35;;;20.10;;
75038;SDS011;63609;49.992;14.512;2022-12-18T20:31:03;60.53;;;25.65;;
75038;SDS011;63609;49.992;14.512;2022-12-18T20:34:40;41.50;;;19.08;;
75038;SDS011;63609;49.992;14.512;2022-12-18T20:37:48;53.22;;;21.67;;
75038;SDS011;63609;49.992;14.512;2022-12-18T20:40:26;42.90;;;20.63;;
75038;SDS011;63609;49.992;14.512;2022-12-18T20:47:02;32.05;;;10.90;;
75038;SDS011;63609;49.992;14.512;2022-12-18T20:49:37;26.60;;;10.20;;
75038;SDS011;63609;49.992;14.512;2022-12-18T20:52:09;23.08;;;11.90;;
75038;SDS011;63609;49.992;14.512;2022-12-18T20:57:41;30.25;;;15.05;;
75038;SDS011;63609;49.992;14.512;2022-12-18T21:01:07;26.98;;;10.40;;
75038;SDS011;63609;49.992;14.512;2022-12-18T21:03:47;22.40;;;11.13;;
75038;SDS011;63609;49.992;14.512;2022-12-18T21:06:19;12.70;;;6.15;;
75038;SDS011;63609;49.992;14.512;2022-12-18T21:08:54;19.95;;;11.45;;
75038;SDS011;63609;49.992;14.512;2022-12-18T21:11:25;25.92;;;9.82;;
75038;SDS011;63609;49.992;14.512;2022-12-18T21:14:25;27.58;;;13.10;;
75038;SDS011;63609;49.992;14.512;2022-12-18T21:16:54;32.30;;;13.68;;
75038;SDS011;63609;49.992;14.512;2022-12-18T21:19:30;36.90;;;15.20;;
75038;SDS011;63609;49.992;14.512;2022-12-18T21:21:57;34.17;;;16.98;;
75038;SDS011;63609;49.992;14.512;2022-12-18T21:26:54;25.70;;;11.32;;
75038;SDS011;63609;49.992;14.512;2022-12-18T21:29:22;30.95;;;13.85;;
75038;SDS011;63609;49.992;14.512;2022-12-18T21:31:51;44.80;;;15.38;;
75038;SDS011;63609;49.992;14.512;2022-12-18T21:34:22;45.00;;;16.65;;
75038;SDS011;63609;49.992;14.512;2022-12-18T21:36:55;39.50;;;17.52;;
75038;SDS011;63609;49.992;14.512;2022-12-18T21:39:24;33.65;;;11.68;;
75038;SDS011;63609;49.992;14.512;2022-12-18T21:41:51;30.15;;;14.85;;
75038;SDS011;63609;49.992;14.512;2022-12-18T21:44:46;33.88;;;10.68;;
75038;SDS011;63609;49.992;14.512;2022-12-18T21:47:14;40.83;;;15.93;;
75038;SDS011;63609;49.992;14.512;2022-12-18T21:49:51;32.03;;;13.90;;
75038;SDS011;63609;49.992;14.512;2022-12-18T21:52:19;39.17;;;13.23;;
75038;SDS011;63609;49.992;14.512;2022-12-18T21:54:58;31.75;;;14.30;;
75038;SDS011;63609;49.992;14.512;2022-12-18T21:57:36;34.22;;;14.90;;
75038;SDS011;63609;49.992;14.512;2022-12-18T22:00:09;39.67;;;17.23;;
75038;SDS011;63609;49.992;14.512;2022-12-18T22:02:47;33.20;;;15.50;;
75038;SDS011;63609;49.992;14.512;2022-12-18T22:05:34;33.53;;;15.52;;
75038;SDS011;63609;49.992;14.512;2022-12-18T22:08:00;42.75;;;16.17;;
75038;SDS011;63609;49.992;14.512;2022-12-18T22:10:34;40.53;;;15.95;;
75038;SDS011;63609;49.992;14.512;2022-12-18T22:13:05;31.20;;;14.40;;
75038;SDS011;63609;49.992;14.512;2022-12-18T22:15:32;32.38;;;13.45;;